General Servando Canales International Airport
MMMA : now visible

Airfield :











YOU CAN JOIN US ON...

 
LOGIN :

Register | Disclaimer

   EN    FR    IT 

 









Legend :    VFR   Marginal VFR   IFR   Intensive IFR   Very Intensive IFR
Visi :
Ceiling :
>= 8 km
>= 3000ft
5 to 8 km
1000 to 3000 ft
1500m to 5 km
500 to 1000 ft
800 to 1500m
200 to 500 ft
< 800m
< 200 ft
Symbols :   Thunderstorms  Fog  Heavy snow  Heavy precipitations  Wind > 20 kt






- Airport Elevation : 25 ft
- IATA code : MAM


MMMA - General Servando Canales International

CURRENT METAR :
  • 030040Z 12016KT 6SM BKN025TCU 26/22 A2979 RMK 8/200 HZ BLDU ISOL CI

EXPIRED METARs :
  • 022341Z 13015KT 6SM BKN025TCU 27/22 A2978 RMK SLP085 53003 982 8/200 HZ BLDU
  • 022240Z 16013G23KT 6SM BKN025TCU 28/22 A2977 RMK 8/200 HZ BLDU

TAF COR TAF MMMA
Valid from the 02 at 18:00 until the 03 at 18:00 UTC


021822Z 0218/0318 14018KT 6SM BLDU SCT020 OVC035
FM022000 14020KT 6SM BLDU BKN030 BKN220
BECMG 0302/0303 14012KT 6SM HZ
PROB40 0303/0307 6SM -RA
FM031000 13012KT 6SM HZ BKN015 OVC030
TEMPO 0311/0315 3SM -RA BR OVC015



MET'MAP, your aeronautical weather chart ! - Copyright ORBIFLY December 2007 - Disclaimer

ORBIFLY MET'MAP TEAM :

Programming & Development : Alexandra Zaïnal
Concept & original design : Baudouin d'Aumeries
Assistance for programming : Marc-Olivier Méhu
Technical & hardware support : Manuel Goepfert

Contact : metmap@orbifly.com




SOURCES & CREDITS :

   NOAA       Earth
Advisory